Time;durP1;ratioP1;P1;durP2;ratioP2;P2;SDS_P1;SDS_P2;PMS_P1;PMS_P2;Temp;Humidity;BMP_temperature;BMP_pressure;BME280_temperature;BME280_humidity;BME280_pressure;Samples;Min_cycle;Max_cycle;Signal;HPM_P1;HPM_P2
2022/12/04 00:00:13;;;;;;;17.60;7.10;;;4.00;99.90;;;;;;5014408;28;20506;-84
2022/12/04 00:02:40;;;;;;;17.42;6.55;;;4.00;99.90;;;;;;5033057;28;20136;-84
2022/12/04 00:05:07;;;;;;;20.45;7.00;;;3.90;99.90;;;;;;5023361;28;20460;-84
2022/12/04 00:07:34;;;;;;;21.73;7.60;;;3.90;99.90;;;;;;5039833;28;20583;-84
2022/12/04 00:09:59;;;;;;;20.27;7.57;;;3.90;99.90;;;;;;5057996;28;20611;-84
2022/12/04 00:12:26;;;;;;;19.77;6.37;;;3.80;99.90;;;;;;5041909;28;20032;-84
2022/12/04 00:14:51;;;;;;;18.63;7.05;;;3.80;99.90;;;;;;5015691;28;20669;-84
2022/12/04 00:17:17;;;;;;;18.60;7.13;;;3.80;99.90;;;;;;5034934;28;20024;-84
2022/12/04 00:19:43;;;;;;;17.20;7.10;;;3.80;99.90;;;;;;5038541;28;20016;-84
2022/12/04 00:22:09;;;;;;;16.65;6.28;;;3.80;99.90;;;;;;5044437;28;20032;-84
2022/12/04 00:24:34;;;;;;;19.43;7.17;;;3.80;99.90;;;;;;5043135;28;20305;-84
2022/12/04 00:27:00;;;;;;;21.80;7.28;;;3.80;99.90;;;;;;5067162;28;20024;-84
2022/12/04 00:29:26;;;;;;;16.47;6.67;;;3.80;99.90;;;;;;5053774;28;20841;-84
2022/12/04 00:31:52;;;;;;;19.33;6.55;;;3.90;99.90;;;;;;5022156;28;20031;-84
2022/12/04 00:34:17;;;;;;;20.30;7.57;;;3.90;99.90;;;;;;5032897;28;20031;-84
2022/12/04 00:36:43;;;;;;;21.52;7.85;;;3.90;99.90;;;;;;5029445;28;20024;-84
2022/12/04 00:39:09;;;;;;;20.63;7.40;;;3.90;99.90;;;;;;5044416;28;20020;-84
2022/12/04 00:41:34;;;;;;;19.52;7.38;;;3.90;99.90;;;;;;5046593;28;20135;-84
2022/12/04 00:44:01;;;;;;;18.00;6.40;;;3.90;99.90;;;;;;5048925;28;20107;-84
2022/12/04 00:46:27;;;;;;;18.27;7.03;;;3.90;99.90;;;;;;5013774;28;20732;-84
2022/12/04 00:48:53;;;;;;;19.05;7.20;;;3.90;99.90;;;;;;5067364;28;20013;-84
2022/12/04 00:51:24;;;;;;;16.95;6.82;;;3.90;99.90;;;;;;5039969;28;20016;-84
2022/12/04 00:53:51;;;;;;;19.27;7.25;;;3.90;99.90;;;;;;5075682;28;20059;-85
2022/12/04 00:56:21;;;;;;;22.63;8.50;;;3.90;99.90;;;;;;5040148;28;20020;-85
2022/12/04 00:58:50;;;;;;;17.95;6.82;;;3.90;99.90;;;;;;5030255;28;20104;-85
2022/12/04 01:01:18;;;;;;;20.85;7.68;;;3.90;99.90;;;;;;5042248;28;20024;-84
2022/12/04 01:03:44;;;;;;;18.58;6.82;;;3.90;99.90;;;;;;5050532;28;20036;-84
2022/12/04 01:06:36;;;;;;;15.03;6.40;;;3.90;99.90;;;;;;5047636;28;20542;-84
2022/12/04 01:09:04;;;;;;;20.08;7.35;;;3.90;99.90;;;;;;5056238;28;20028;-84
2022/12/04 01:11:30;;;;;;;19.00;7.03;;;3.90;99.90;;;;;;5045460;28;20360;-84
2022/12/04 01:13:57;;;;;;;17.55;6.70;;;3.90;99.90;;;;;;5032498;28;20518;-84
2022/12/04 01:16:29;;;;;;;19.90;7.45;;;3.90;99.90;;;;;;5037909;28;20423;-84
2022/12/04 01:18:55;;;;;;;24.50;7.17;;;3.90;99.90;;;;;;5015157;28;20765;-85
2022/12/04 01:21:21;;;;;;;17.48;6.38;;;3.90;99.90;;;;;;5065729;28;20028;-85
2022/12/04 01:23:47;;;;;;;22.30;7.70;;;3.90;99.90;;;;;;5052129;28;22079;-85
2022/12/04 01:26:13;;;;;;;21.83;7.38;;;3.90;99.90;;;;;;5043007;28;20508;-84
2022/12/04 01:28:39;;;;;;;23.97;9.43;;;3.90;99.90;;;;;;5030593;28;20031;-84
2022/12/04 01:31:16;;;;;;;21.02;7.43;;;3.90;99.90;;;;;;5054853;28;20027;-85
2022/12/04 01:33:43;;;;;;;23.92;8.02;;;3.80;99.90;;;;;;5023446;28;20024;-85
2022/12/04 01:36:21;;;;;;;20.42;7.07;;;3.80;99.90;;;;;;5043469;28;20020;-84
2022/12/04 01:38:47;;;;;;;21.03;7.50;;;3.80;99.90;;;;;;5055230;28;20112;-84
2022/12/04 01:41:14;;;;;;;22.65;8.00;;;3.80;99.90;;;;;;5072033;28;20441;-84
2022/12/04 01:43:41;;;;;;;20.48;7.72;;;3.80;99.90;;;;;;5011120;28;20071;-84
2022/12/04 01:46:07;;;;;;;19.50;6.57;;;3.70;99.90;;;;;;5042655;28;20504;-84
2022/12/04 01:48:51;;;;;;;19.73;6.50;;;3.70;99.90;;;;;;5031057;28;20028;-84
2022/12/04 01:51:23;;;;;;;17.90;6.30;;;3.70;99.90;;;;;;5046416;28;20020;-84
2022/12/04 01:54:03;;;;;;;20.95;7.63;;;3.60;99.90;;;;;;5072480;28;20287;-85
2022/12/04 01:56:35;;;;;;;18.23;6.18;;;3.60;99.90;;;;;;5071689;28;20028;-84
2022/12/04 01:59:02;;;;;;;19.17;6.35;;;3.60;99.90;;;;;;5040078;28;20408;-84
2022/12/04 02:01:34;;;;;;;18.97;6.83;;;3.60;99.90;;;;;;5042886;28;20024;-85
2022/12/04 02:04:01;;;;;;;19.15;7.07;;;3.60;99.90;;;;;;5027859;28;20063;-85
2022/12/04 02:06:27;;;;;;;22.58;7.13;;;3.50;99.90;;;;;;5034027;28;20035;-84
2022/12/04 02:08:53;;;;;;;22.45;7.45;;;3.60;99.90;;;;;;5041700;28;20740;-84
2022/12/04 02:11:53;;;;;;;19.87;6.87;;;3.60;99.90;;;;;;5055918;28;20078;-84
2022/12/04 02:14:38;;;;;;;17.75;6.80;;;3.60;99.90;;;;;;5040697;28;20114;-84
2022/12/04 02:17:04;;;;;;;17.67;5.93;;;3.50;99.90;;;;;;5074133;28;20023;-84
2022/12/04 02:19:45;;;;;;;18.83;7.17;;;3.60;99.90;;;;;;5032391;28;20450;-84
2022/12/04 02:22:29;;;;;;;20.85;7.30;;;3.60;99.90;;;;;;5041174;28;20035;-85
2022/12/04 02:25:17;;;;;;;18.55;5.80;;;3.60;99.90;;;;;;5068136;28;20695;-85
2022/12/04 02:27:49;;;;;;;21.10;7.10;;;3.60;99.90;;;;;;5039108;28;20174;-84
2022/12/04 02:30:15;;;;;;;20.25;6.70;;;3.70;99.90;;;;;;5046403;28;20028;-84
2022/12/04 02:33:06;;;;;;;20.33;6.37;;;3.70;99.90;;;;;;5056346;28;20043;-84
2022/12/04 02:35:59;;;;;;;18.98;6.72;;;3.70;99.90;;;;;;5010043;28;20032;-84
2022/12/04 02:38:28;;;;;;;22.30;7.22;;;3.80;99.90;;;;;;5066638;28;20024;-85
2022/12/04 02:41:00;;;;;;;21.60;7.40;;;3.90;99.90;;;;;;5055081;28;20027;-84
2022/12/04 02:43:32;;;;;;;22.70;7.70;;;3.90;99.90;;;;;;5040646;28;20119;-84
2022/12/04 02:46:12;;;;;;;22.25;7.32;;;3.90;99.90;;;;;;5044060;28;20036;-84
2022/12/04 02:48:41;;;;;;;20.73;7.80;;;3.90;99.90;;;;;;5066474;28;20035;-84
2022/12/04 02:51:10;;;;;;;20.95;7.22;;;4.00;99.90;;;;;;5031363;28;20028;-84
2022/12/04 02:53:42;;;;;;;17.20;5.97;;;4.00;99.90;;;;;;5044390;28;20028;-84
2022/12/04 02:56:11;;;;;;;19.10;6.75;;;4.00;99.90;;;;;;5051097;28;20107;-85
2022/12/04 02:58:43;;;;;;;19.92;6.80;;;4.00;99.90;;;;;;5043596;28;20546;-83
2022/12/04 03:01:20;;;;;;;20.33;6.93;;;4.10;99.90;;;;;;5037357;28;20712;-84
2022/12/04 03:04:01;;;;;;;19.25;6.78;;;4.10;99.90;;;;;;5037160;28;20578;-84
2022/12/04 03:06:31;;;;;;;18.63;6.00;;;4.10;99.90;;;;;;5028738;28;20044;-84
2022/12/04 03:09:29;;;;;;;20.77;6.65;;;4.20;99.90;;;;;;5058310;28;20459;-84
2022/12/04 03:12:05;;;;;;;18.60;6.85;;;4.20;99.90;;;;;;5056432;28;20291;-84
2022/12/04 03:14:35;;;;;;;19.02;6.82;;;4.20;99.90;;;;;;5021835;28;20557;-84
2022/12/04 03:17:32;;;;;;;25.38;8.55;;;4.20;99.90;;;;;;5025123;28;20028;-84
2022/12/04 03:20:04;;;;;;;17.17;6.00;;;4.20;99.90;;;;;;5030286;28;20073;-85
2022/12/04 03:22:32;;;;;;;21.40;6.97;;;4.20;99.90;;;;;;5008254;28;20036;-84
2022/12/04 03:24:58;;;;;;;23.50;7.45;;;4.30;99.90;;;;;;5039742;28;20031;-85
2022/12/04 03:27:47;;;;;;;22.55;7.82;;;4.20;99.90;;;;;;5057337;28;20400;-85
2022/12/04 03:30:17;;;;;;;25.08;9.00;;;4.30;99.90;;;;;;5047744;28;20032;-84
2022/12/04 03:32:55;;;;;;;22.40;8.47;;;4.20;99.90;;;;;;5033144;28;20397;-84
2022/12/04 03:35:45;;;;;;;22.75;8.02;;;4.20;99.90;;;;;;5034898;28;20020;-85
2022/12/04 03:38:38;;;;;;;15.93;5.68;;;4.20;99.90;;;;;;5029486;28;20144;-84
2022/12/04 03:41:26;;;;;;;20.13;7.35;;;4.30;99.90;;;;;;5046426;28;20020;-84
2022/12/04 03:44:10;;;;;;;19.35;7.40;;;4.30;99.90;;;;;;5039997;28;20105;-84
2022/12/04 03:47:14;;;;;;;27.73;8.73;;;4.30;99.90;;;;;;5044314;28;20081;-84
2022/12/04 03:49:53;;;;;;;27.30;9.13;;;4.30;99.90;;;;;;5002892;28;20269;-85
2022/12/04 03:52:38;;;;;;;23.63;7.88;;;4.30;99.90;;;;;;5025296;28;20040;-84
2022/12/04 03:55:14;;;;;;;23.92;8.15;;;4.30;99.90;;;;;;5039657;28;20081;-85
2022/12/04 03:57:44;;;;;;;17.77;6.72;;;4.30;99.90;;;;;;5047692;28;20301;-84
2022/12/04 04:00:16;;;;;;;21.03;7.30;;;4.30;99.90;;;;;;5081764;28;20099;-85
2022/12/04 04:02:53;;;;;;;21.55;7.65;;;4.30;99.90;;;;;;5052651;28;20381;-84
2022/12/04 04:05:21;;;;;;;19.92;6.57;;;4.30;99.90;;;;;;5047288;28;20732;-83
2022/12/04 04:07:54;;;;;;;26.02;9.32;;;4.30;99.90;;;;;;5035210;28;20031;-84
2022/12/04 04:10:24;;;;;;;22.58;7.47;;;4.30;99.90;;;;;;5044307;28;20020;-84
2022/12/04 04:24:45;;;;;;;22.98;7.88;;;4.30;99.90;;;;;;5035916;28;20076;-84
2022/12/04 04:27:12;;;;;;;19.83;7.00;;;4.30;99.90;;;;;;5061891;28;20024;-84
2022/12/04 04:29:38;;;;;;;22.60;7.65;;;4.30;99.90;;;;;;5046704;28;20570;-85
2022/12/04 04:32:31;;;;;;;22.27;7.85;;;4.30;99.90;;;;;;5067682;28;20794;-84
2022/12/04 04:35:22;;;;;;;21.00;6.95;;;4.30;99.90;;;;;;5080258;28;20591;-84
2022/12/04 04:37:48;;;;;;;18.33;6.78;;;4.40;99.90;;;;;;5025473;28;20064;-84
2022/12/04 04:40:25;;;;;;;20.17;7.40;;;4.40;99.90;;;;;;5037697;28;20136;-85
2022/12/04 04:43:24;;;;;;;20.17;7.43;;;4.40;99.90;;;;;;5069107;28;20096;-84
2022/12/04 04:46:04;;;;;;;18.00;6.57;;;4.40;99.90;;;;;;5049217;28;20033;-84
2022/12/04 04:48:39;;;;;;;19.13;7.45;;;4.40;99.90;;;;;;5059880;28;20087;-83
2022/12/04 04:51:05;;;;;;;21.77;7.47;;;4.40;99.90;;;;;;5050059;28;20012;-84
2022/12/04 04:53:38;;;;;;;18.58;6.55;;;4.40;99.90;;;;;;5023812;28;20024;-84
2022/12/04 04:56:06;;;;;;;19.52;7.68;;;4.40;99.90;;;;;;5047759;28;20020;-84
2022/12/04 04:58:32;;;;;;;17.17;6.63;;;4.40;99.90;;;;;;5058482;28;20025;-84
2022/12/04 05:01:06;;;;;;;19.75;7.10;;;4.50;99.90;;;;;;5033673;28;20486;-84
2022/12/04 05:03:31;;;;;;;22.17;7.70;;;4.40;99.90;;;;;;5029406;28;20059;-84
2022/12/04 05:05:57;;;;;;;19.93;7.40;;;4.50;99.90;;;;;;5061469;28;20407;-84
2022/12/04 05:08:23;;;;;;;21.10;7.80;;;4.40;99.90;;;;;;5047340;28;20366;-84
2022/12/04 05:10:49;;;;;;;18.83;7.20;;;4.40;99.90;;;;;;5036197;28;20531;-84
2022/12/04 05:13:16;;;;;;;15.27;5.90;;;4.40;99.90;;;;;;5062014;28;20578;-84
2022/12/04 05:15:42;;;;;;;19.00;7.22;;;4.40;99.90;;;;;;5043079;28;20054;-84
2022/12/04 05:18:08;;;;;;;21.20;7.80;;;4.50;99.90;;;;;;5033790;28;20115;-84
2022/12/04 05:20:37;;;;;;;20.33;7.37;;;4.50;99.90;;;;;;5044159;28;20524;-83
2022/12/04 05:23:03;;;;;;;17.92;7.35;;;4.50;99.90;;;;;;5042078;28;20644;-85
2022/12/04 05:25:29;;;;;;;18.58;6.88;;;4.50;99.90;;;;;;5040313;28;20025;-84
2022/12/04 05:27:54;;;;;;;22.70;8.23;;;4.50;99.90;;;;;;5026620;28;20024;-84
2022/12/04 05:30:20;;;;;;;19.13;8.00;;;4.50;99.90;;;;;;5070276;28;20016;-84
2022/12/04 05:32:46;;;;;;;22.92;8.30;;;4.50;99.90;;;;;;5015253;28;20028;-84
2022/12/04 05:35:11;;;;;;;18.33;6.90;;;4.50;99.90;;;;;;5043786;28;21010;-85
2022/12/04 05:37:39;;;;;;;17.75;7.00;;;4.50;99.90;;;;;;5028767;28;20123;-84
2022/12/04 05:40:06;;;;;;;20.33;7.38;;;4.50;99.90;;;;;;5053425;28;20018;-84
2022/12/04 05:42:32;;;;;;;21.13;7.53;;;4.50;99.90;;;;;;5032067;28;20119;-84
2022/12/04 05:44:58;;;;;;;17.77;7.30;;;4.50;99.90;;;;;;5040843;28;20184;-84
2022/12/04 05:47:23;;;;;;;22.10;7.97;;;4.50;99.90;;;;;;5031886;28;20122;-84
2022/12/04 05:49:49;;;;;;;19.85;7.88;;;4.50;99.90;;;;;;5023451;28;20059;-84
2022/12/04 05:52:15;;;;;;;18.38;7.13;;;4.50;99.90;;;;;;5037239;28;20701;-85
2022/12/04 05:54:41;;;;;;;22.58;8.32;;;4.50;99.90;;;;;;5047517;28;20494;-84
2022/12/04 05:57:07;;;;;;;21.07;7.20;;;4.50;99.90;;;;;;5011225;28;20532;-83
2022/12/04 05:59:32;;;;;;;20.75;7.78;;;4.50;99.90;;;;;;5044236;28;20022;-84
2022/12/04 06:01:58;;;;;;;21.07;8.20;;;4.50;99.90;;;;;;5054445;28;20099;-84
2022/12/04 06:04:24;;;;;;;22.10;8.25;;;4.50;99.90;;;;;;5030627;28;20496;-84
2022/12/04 06:06:52;;;;;;;21.50;7.95;;;4.50;99.90;;;;;;5031395;28;20020;-83
2022/12/04 06:09:18;;;;;;;21.17;7.30;;;4.40;99.90;;;;;;5020622;28;20020;-84
2022/12/04 06:11:44;;;;;;;19.40;7.20;;;4.50;99.90;;;;;;5042655;28;20680;-84
2022/12/04 06:14:13;;;;;;;17.93;6.70;;;4.40;99.90;;;;;;5030930;28;20032;-84
2022/12/04 06:16:41;;;;;;;19.83;7.03;;;4.40;99.90;;;;;;5037749;28;20028;-83
2022/12/04 06:19:10;;;;;;;19.15;7.35;;;4.50;99.90;;;;;;5032003;28;20119;-84
2022/12/04 06:21:38;;;;;;;21.75;7.70;;;4.40;99.90;;;;;;5042195;28;20249;-84
2022/12/04 06:24:05;;;;;;;19.02;6.63;;;4.40;99.90;;;;;;5015059;28;20080;-84
2022/12/04 06:26:31;;;;;;;19.07;7.30;;;4.40;99.90;;;;;;5067258;28;20039;-84
2022/12/04 06:28:57;;;;;;;21.13;6.97;;;4.40;99.90;;;;;;5029687;28;20029;-84
2022/12/04 06:31:26;;;;;;;19.75;7.03;;;4.40;99.90;;;;;;5041022;28;20147;-84
2022/12/04 06:33:53;;;;;;;22.90;8.53;;;4.40;99.90;;;;;;5029469;28;20036;-84
2022/12/04 06:36:20;;;;;;;18.63;6.97;;;4.40;99.90;;;;;;5037852;28;20032;-84
2022/12/04 06:38:47;;;;;;;23.38;8.10;;;4.40;99.90;;;;;;5039340;28;20158;-84
2022/12/04 06:41:17;;;;;;;22.88;8.82;;;4.40;99.90;;;;;;5037236;28;20024;-84
2022/12/04 06:43:43;;;;;;;22.13;8.85;;;4.40;99.90;;;;;;5009806;28;20719;-85
2022/12/04 06:46:21;;;;;;;22.50;8.37;;;4.40;99.90;;;;;;5054600;28;20016;-84
2022/12/04 06:48:47;;;;;;;20.90;8.05;;;4.40;99.90;;;;;;5043922;28;20123;-84
2022/12/04 06:51:19;;;;;;;20.95;8.15;;;4.40;99.90;;;;;;5054386;28;20047;-85
2022/12/04 06:53:46;;;;;;;22.23;7.45;;;4.40;99.90;;;;;;5007982;28;20307;-85
2022/12/04 06:56:16;;;;;;;20.67;8.05;;;4.40;99.90;;;;;;5035812;28;20078;-84
2022/12/04 06:58:47;;;;;;;24.47;8.30;;;4.40;99.90;;;;;;5025255;28;20095;-84
2022/12/04 07:01:16;;;;;;;27.52;9.93;;;4.40;99.90;;;;;;5060453;28;20012;-84
2022/12/04 07:03:42;;;;;;;23.65;8.90;;;4.40;99.90;;;;;;5047110;28;20045;-85
2022/12/04 07:06:28;;;;;;;23.80;8.90;;;4.40;99.90;;;;;;5049108;28;20316;-84
2022/12/04 07:08:59;;;;;;;23.13;8.07;;;4.40;99.90;;;;;;5026712;28;20039;-84
2022/12/04 07:11:26;;;;;;;23.67;8.83;;;4.40;99.90;;;;;;5014223;28;20323;-84
2022/12/04 07:13:51;;;;;;;23.98;9.27;;;4.40;99.90;;;;;;5057956;28;20027;-84
2022/12/04 07:16:20;;;;;;;18.70;6.97;;;4.40;99.90;;;;;;5042342;28;20667;-84
2022/12/04 07:18:49;;;;;;;27.85;10.07;;;4.40;99.90;;;;;;5059718;28;20480;-84
2022/12/04 07:21:17;;;;;;;22.08;8.52;;;4.40;99.90;;;;;;5054782;28;20131;-85
2022/12/04 07:23:44;;;;;;;22.00;8.43;;;4.40;99.90;;;;;;5037952;28;20400;-84
2022/12/04 07:26:12;;;;;;;21.92;8.23;;;4.40;99.90;;;;;;5022730;28;20303;-84
2022/12/04 07:28:39;;;;;;;17.15;6.28;;;4.40;99.90;;;;;;5071962;28;20573;-85
2022/12/04 07:31:06;;;;;;;18.85;6.75;;;4.40;99.90;;;;;;5045276;28;20085;-85
2022/12/04 07:33:33;;;;;;;25.45;8.95;;;4.40;99.90;;;;;;5057196;28;20039;-84
2022/12/04 07:36:00;;;;;;;21.63;8.13;;;4.40;99.90;;;;;;5045443;28;20016;-84
2022/12/04 07:38:27;;;;;;;22.42;7.88;;;4.40;99.90;;;;;;5017321;28;20179;-84
2022/12/04 07:40:57;;;;;;;20.90;8.65;;;4.40;99.90;;;;;;5061355;28;20024;-83
2022/12/04 07:43:23;;;;;;;22.10;8.30;;;4.50;99.90;;;;;;5022125;28;20088;-84
2022/12/04 07:45:49;;;;;;;24.30;8.07;;;4.40;99.90;;;;;;5040961;28;20028;-84
2022/12/04 07:48:15;;;;;;;18.87;7.37;;;4.50;99.90;;;;;;5071143;28;20039;-84
2022/12/04 07:50:40;;;;;;;19.27;8.03;;;4.50;99.90;;;;;;5061111;28;20565;-83
2022/12/04 07:53:06;;;;;;;20.25;7.53;;;4.50;99.90;;;;;;5066058;28;20028;-84
2022/12/04 07:55:32;;;;;;;19.43;7.53;;;4.50;99.90;;;;;;5022316;28;20312;-84
2022/12/04 07:57:58;;;;;;;18.45;7.00;;;4.50;99.90;;;;;;5045013;28;20028;-84
2022/12/04 08:00:23;;;;;;;21.55;7.65;;;4.50;99.90;;;;;;5015814;28;21624;-84
2022/12/04 08:02:49;;;;;;;23.20;8.47;;;4.50;99.90;;;;;;5073821;28;20545;-84
2022/12/04 08:05:15;;;;;;;21.52;7.63;;;4.50;99.90;;;;;;5052886;28;20576;-84
2022/12/04 08:07:41;;;;;;;21.97;7.90;;;4.50;99.90;;;;;;5046056;28;20024;-83
2022/12/04 08:10:07;;;;;;;21.33;7.53;;;4.50;99.90;;;;;;5039157;28;20036;-84
2022/12/04 08:12:33;;;;;;;23.00;8.65;;;4.60;99.90;;;;;;5066351;28;20497;-84
2022/12/04 08:14:59;;;;;;;19.60;7.70;;;4.60;99.90;;;;;;5013876;28;20028;-84
2022/12/04 08:17:25;;;;;;;23.13;8.25;;;4.60;99.90;;;;;;5029087;28;20025;-84
2022/12/04 08:19:51;;;;;;;18.73;7.25;;;4.60;99.90;;;;;;5033643;28;20150;-85
2022/12/04 08:22:16;;;;;;;22.03;7.63;;;4.60;99.90;;;;;;5032434;28;20021;-84
2022/12/04 08:24:42;;;;;;;20.80;7.80;;;4.60;99.90;;;;;;5059786;28;20020;-84
2022/12/04 08:27:08;;;;;;;24.87;8.63;;;4.60;99.90;;;;;;5047513;28;20024;-84
2022/12/04 08:29:34;;;;;;;17.48;6.32;;;4.70;99.90;;;;;;5054156;28;20027;-85
2022/12/04 08:32:00;;;;;;;23.52;8.77;;;4.70;99.90;;;;;;5012654;28;20046;-83
2022/12/04 08:34:26;;;;;;;21.63;8.33;;;4.70;99.90;;;;;;5031224;28;20123;-84
2022/12/04 08:36:51;;;;;;;21.40;8.00;;;4.70;99.90;;;;;;5054756;28;20349;-84
2022/12/04 08:39:17;;;;;;;23.00;9.03;;;4.70;99.90;;;;;;5019816;28;20107;-84
2022/12/04 08:41:43;;;;;;;23.35;9.27;;;4.70;99.90;;;;;;5023588;28;20068;-84
2022/12/04 08:44:09;;;;;;;23.83;9.83;;;4.80;99.90;;;;;;5060273;28;20098;-84
2022/12/04 08:46:35;;;;;;;27.23;10.10;;;4.80;99.90;;;;;;5022211;28;20292;-84
2022/12/04 08:49:00;;;;;;;23.33;8.10;;;4.80;99.90;;;;;;5017201;28;20074;-84
2022/12/04 08:51:29;;;;;;;23.63;8.90;;;4.80;99.90;;;;;;5052202;28;22592;-84
2022/12/04 08:54:00;;;;;;;23.15;8.65;;;4.90;99.90;;;;;;5061437;28;20079;-84
2022/12/04 08:56:28;;;;;;;18.65;7.60;;;4.90;99.90;;;;;;5030400;28;20059;-84
2022/12/04 08:58:55;;;;;;;24.80;8.70;;;4.90;99.90;;;;;;5033704;28;20108;-84
2022/12/04 09:01:21;;;;;;;22.77;8.95;;;5.00;99.90;;;;;;5036190;28;20389;-84
2022/12/04 09:03:47;;;;;;;28.85;10.38;;;5.00;99.90;;;;;;5033064;28;20300;-84
2022/12/04 09:06:16;;;;;;;30.08;11.25;;;5.00;99.90;;;;;;5073424;28;20050;-84
2022/12/04 09:08:42;;;;;;;32.13;12.33;;;5.00;99.90;;;;;;5040150;28;22232;-85
2022/12/04 09:11:19;;;;;;;29.35;11.15;;;5.00;99.90;;;;;;5023687;28;20210;-85
2022/12/04 09:13:46;;;;;;;21.80;8.45;;;4.90;99.90;;;;;;5044736;28;20569;-84
2022/12/04 09:16:15;;;;;;;27.08;10.27;;;4.90;99.90;;;;;;5028223;28;20703;-85
2022/12/04 09:18:41;;;;;;;21.30;7.83;;;5.00;99.90;;;;;;5012429;28;20017;-84
2022/12/04 09:21:10;;;;;;;19.83;7.60;;;4.90;99.90;;;;;;5035344;28;20281;-84
2022/12/04 09:23:37;;;;;;;20.42;7.95;;;5.00;99.90;;;;;;5057079;28;20144;-84
2022/12/04 09:26:05;;;;;;;19.77;7.63;;;5.00;99.90;;;;;;5016676;28;20021;-84
2022/12/04 09:28:31;;;;;;;19.00;7.82;;;5.00;99.90;;;;;;5033893;28;20308;-84
2022/12/04 09:31:03;;;;;;;21.83;8.23;;;5.00;99.90;;;;;;5024701;28;20088;-85
2022/12/04 09:33:29;;;;;;;21.65;7.95;;;5.00;99.90;;;;;;4985433;28;20578;-84
2022/12/04 09:35:58;;;;;;;21.48;7.82;;;5.00;99.90;;;;;;5057505;28;20062;-84
2022/12/04 09:38:25;;;;;;;20.13;7.55;;;5.10;99.90;;;;;;5035473;28;20197;-84
2022/12/04 09:41:06;;;;;;;19.85;7.72;;;5.10;99.90;;;;;;5042254;28;20023;-84
2022/12/04 09:43:42;;;;;;;19.17;7.33;;;5.10;99.90;;;;;;5062511;28;20020;-84
2022/12/04 09:46:22;;;;;;;20.80;7.88;;;5.20;99.90;;;;;;5032915;28;20028;-84
2022/12/04 09:48:49;;;;;;;18.58;7.32;;;5.10;99.90;;;;;;5065139;28;20024;-84
2022/12/04 09:51:20;;;;;;;19.38;7.38;;;5.20;99.90;;;;;;4993387;28;20147;-84
2022/12/04 09:54:09;;;;;;;17.38;6.70;;;5.30;99.90;;;;;;5053963;28;20032;-84
2022/12/04 09:56:34;;;;;;;14.43;5.33;;;5.30;99.90;;;;;;5041263;28;20451;-84
2022/12/04 09:59:23;;;;;;;16.85;6.80;;;5.30;99.90;;;;;;5027201;28;20024;-84
2022/12/04 10:02:14;;;;;;;16.35;6.35;;;5.40;99.90;;;;;;5022217;28;20662;-84
2022/12/04 10:04:40;;;;;;;16.23;6.70;;;5.40;99.90;;;;;;4998201;28;20382;-83
2022/12/04 10:07:24;;;;;;;14.77;5.93;;;5.40;99.90;;;;;;5060388;28;20350;-84
2022/12/04 10:09:59;;;;;;;16.77;6.32;;;5.40;99.90;;;;;;5051792;28;20091;-84
2022/12/04 10:12:42;;;;;;;18.40;7.00;;;5.50;99.90;;;;;;5053092;28;20493;-85
2022/12/04 10:15:16;;;;;;;15.45;6.55;;;5.50;99.90;;;;;;5047769;28;20016;-84
2022/12/04 10:18:03;;;;;;;11.57;5.10;;;5.50;99.90;;;;;;5031558;28;20714;-84
2022/12/04 10:20:58;;;;;;;16.70;6.97;;;5.50;99.90;;;;;;5021730;28;20020;-84
2022/12/04 10:23:57;;;;;;;16.45;6.70;;;5.50;99.90;;;;;;5036809;28;20031;-85
2022/12/04 10:26:30;;;;;;;16.85;6.55;;;5.50;99.90;;;;;;5017259;28;20144;-84
2022/12/04 10:29:01;;;;;;;18.02;7.70;;;5.50;99.90;;;;;;5060298;28;20234;-85
2022/12/04 10:31:28;;;;;;;15.70;6.47;;;5.50;99.90;;;;;;5048751;28;20064;-84
2022/12/04 10:34:04;;;;;;;17.20;6.82;;;5.50;99.90;;;;;;5025857;28;20324;-84
2022/12/04 10:36:32;;;;;;;17.35;6.68;;;5.50;99.90;;;;;;5021379;28;20024;-84
2022/12/04 10:39:03;;;;;;;22.20;7.35;;;5.50;99.90;;;;;;5060148;28;20228;-84
2022/12/04 10:41:38;;;;;;;16.50;6.50;;;5.50;99.90;;;;;;5019215;28;20609;-84
2022/12/04 10:44:03;;;;;;;15.83;6.90;;;5.60;99.90;;;;;;5027119;28;20012;-84
2022/12/04 10:46:34;;;;;;;16.25;6.75;;;5.50;99.90;;;;;;5027282;28;20032;-84
2022/12/04 10:49:20;;;;;;;20.58;8.45;;;5.60;99.90;;;;;;5010850;28;20389;-85
2022/12/04 10:51:46;;;;;;;22.15;8.80;;;5.50;99.90;;;;;;5023226;28;20021;-84
2022/12/04 10:54:24;;;;;;;17.17;7.27;;;5.50;99.90;;;;;;5047602;28;20054;-84
2022/12/04 10:56:58;;;;;;;21.10;9.30;;;5.50;99.90;;;;;;5041823;28;20047;-85
2022/12/04 10:59:24;;;;;;;17.83;7.97;;;5.50;99.90;;;;;;5058038;28;20317;-84
2022/12/04 11:01:57;;;;;;;13.05;5.57;;;5.50;99.90;;;;;;5029852;28;20560;-84
2022/12/04 11:04:26;;;;;;;13.63;6.13;;;5.50;99.90;;;;;;5015954;28;20510;-84
2022/12/04 11:07:20;;;;;;;17.97;7.20;;;5.50;99.90;;;;;;5028658;28;20384;-84
2022/12/04 11:09:58;;;;;;;14.88;6.25;;;5.50;99.90;;;;;;5024805;28;20024;-84
2022/12/04 11:12:24;;;;;;;15.85;6.47;;;5.50;99.90;;;;;;5027499;28;20375;-84
2022/12/04 11:15:06;;;;;;;19.33;8.05;;;5.50;99.90;;;;;;5024478;28;20499;-84
2022/12/04 11:17:32;;;;;;;13.98;6.45;;;5.50;99.90;;;;;;5007495;28;20032;-85
2022/12/04 11:20:07;;;;;;;13.00;6.50;;;5.50;99.90;;;;;;5016019;28;20555;-84
2022/12/04 11:22:45;;;;;;;15.00;6.85;;;5.50;99.90;;;;;;5002822;28;20028;-84
2022/12/04 11:25:15;;;;;;;16.48;7.03;;;5.50;99.90;;;;;;5034891;28;20020;-85
2022/12/04 11:27:47;;;;;;;13.60;5.93;;;5.50;99.90;;;;;;5012247;28;20385;-84
2022/12/04 11:30:18;;;;;;;13.55;5.85;;;5.50;99.90;;;;;;5054244;28;20119;-84
2022/12/04 11:32:45;;;;;;;15.03;6.50;;;5.50;99.90;;;;;;5034985;28;20039;-83
2022/12/04 11:35:22;;;;;;;13.18;5.93;;;5.50;99.90;;;;;;5026524;28;20376;-85
2022/12/04 11:37:58;;;;;;;13.73;6.35;;;5.50;99.90;;;;;;5014412;28;20856;-84
2022/12/04 11:40:25;;;;;;;14.07;6.78;;;5.50;99.90;;;;;;5055778;28;20029;-85
2022/12/04 11:43:05;;;;;;;13.63;6.70;;;5.60;99.90;;;;;;5041827;28;20016;-84
2022/12/04 11:45:31;;;;;;;17.93;7.53;;;5.60;99.90;;;;;;5048069;28;20029;-84
2022/12/04 11:48:03;;;;;;;13.73;6.68;;;5.60;99.90;;;;;;5040676;28;20054;-84
2022/12/04 11:50:41;;;;;;;12.75;6.00;;;5.60;99.90;;;;;;5024192;28;20101;-84
2022/12/04 11:53:21;;;;;;;9.60;5.15;;;5.60;99.90;;;;;;5012770;28;20832;-84
2022/12/04 11:56:15;;;;;;;12.30;5.85;;;5.60;99.90;;;;;;5024442;28;20555;-85
2022/12/04 11:59:28;;;;;;;14.03;6.30;;;5.60;99.90;;;;;;5027219;28;20401;-84
2022/12/04 12:02:25;;;;;;;15.65;6.88;;;5.60;99.90;;;;;;5034485;28;20071;-84
2022/12/04 12:05:22;;;;;;;14.52;6.57;;;5.60;99.90;;;;;;5041413;28;20106;-84
2022/12/04 12:07:59;;;;;;;12.68;6.20;;;5.50;99.90;;;;;;5040513;28;20070;-84
2022/12/04 12:10:45;;;;;;;18.52;7.88;;;5.60;99.90;;;;;;5025505;28;20041;-85
2022/12/04 12:13:27;;;;;;;17.97;8.03;;;5.50;99.90;;;;;;5054974;28;20477;-84
2022/12/04 12:16:12;;;;;;;14.35;6.70;;;5.60;99.90;;;;;;5037595;28;20048;-84
2022/12/04 12:19:21;;;;;;;16.13;7.40;;;5.50;99.90;;;;;;5012103;28;20173;-84
2022/12/04 12:22:14;;;;;;;16.88;8.07;;;5.50;99.90;;;;;;5034261;28;20213;-84
2022/12/04 12:25:14;;;;;;;16.45;7.13;;;5.50;99.90;;;;;;5023266;28;20289;-83
2022/12/04 12:27:43;;;;;;;15.50;7.47;;;5.50;99.90;;;;;;5023736;28;20130;-84
2022/12/04 12:30:18;;;;;;;15.52;6.85;;;5.50;99.90;;;;;;5025086;28;20027;-83
2022/12/04 12:32:44;;;;;;;18.05;8.20;;;5.50;99.90;;;;;;5050491;28;20035;-84
2022/12/04 12:35:22;;;;;;;21.87;9.60;;;5.50;99.90;;;;;;5033145;28;20389;-84
2022/12/04 12:37:54;;;;;;;20.65;9.10;;;5.50;99.90;;;;;;5010143;28;21095;-85
2022/12/04 12:40:20;;;;;;;23.67;9.32;;;5.50;99.90;;;;;;4991546;28;20094;-84
2022/12/04 12:43:00;;;;;;;19.37;8.70;;;5.50;99.90;;;;;;5024571;28;20033;-84
2022/12/04 12:45:30;;;;;;;23.48;10.40;;;5.50;99.90;;;;;;5022593;28;20391;-85
2022/12/04 12:48:02;;;;;;;24.08;10.48;;;5.50;99.90;;;;;;5054754;28;20591;-82
2022/12/04 12:50:40;;;;;;;22.80;10.30;;;5.50;99.90;;;;;;5033105;28;20032;-84
2022/12/04 12:53:20;;;;;;;21.83;10.18;;;5.50;99.90;;;;;;5035970;28;20036;-83
2022/12/04 12:55:53;;;;;;;24.57;10.43;;;5.50;99.90;;;;;;5024882;28;20027;-84
2022/12/04 12:58:38;;;;;;;30.95;13.32;;;5.50;99.90;;;;;;5047968;28;20067;-80
2022/12/04 13:01:21;;;;;;;25.50;11.10;;;5.50;99.90;;;;;;5048389;28;20033;-80
2022/12/04 13:03:59;;;;;;;28.70;11.80;;;5.50;99.90;;;;;;5055826;28;20868;-85
2022/12/04 13:06:31;;;;;;;26.75;11.63;;;5.40;99.90;;;;;;5003989;28;20044;-85
2022/12/04 13:09:03;;;;;;;28.37;12.20;;;5.50;99.90;;;;;;5032638;28;20032;-84
2022/12/04 13:11:31;;;;;;;27.23;11.27;;;5.40;99.90;;;;;;5009289;28;20055;-85
2022/12/04 13:14:01;;;;;;;22.05;9.93;;;5.40;99.90;;;;;;5048415;28;20032;-85
2022/12/04 13:16:51;;;;;;;22.88;9.65;;;5.40;99.90;;;;;;5046603;28;21916;-84
2022/12/04 13:19:28;;;;;;;24.00;10.27;;;5.40;99.90;;;;;;5050395;28;20350;-84
2022/12/04 13:22:21;;;;;;;22.63;9.27;;;5.30;99.90;;;;;;5038510;28;20021;-84